Details From PAGY - Skagway
To PASI - Sitka Rocky Gutierrez
Flight Number -
Tags Generated
Created
Modified
Stats Distance 144 nm / 267 km
Max Altitude 0 ft / 0 m
Waypoints 2
Social Downloads 2
Likes 0
Share VATSIM

Download

Looking for another format? Having issues loading an existing format? Contact us
Advertisement - Login to hide

Notes

Generated

Route

PAGY PASI

ID Type Via Altitude Latitude Longitude Leg Dist Tot Dist Heading (true) Name
O PAGY APT - 0 ft / 0 m 59.45657˚ -135.32229˚ - 0 nm - SKAGWAY
O PASI APT - 0 ft / 0 m 57.05347˚ -135.37303˚ 144 nm 144 nm 181° / 181° -

Altitude Profile

Advertisement - Login to hide

PAGY

Details ICAO PAGY (SGY)
Name SKAGWAY
Region USA (Alaska)
Timezone America/Juneau (UTC-8.0)
Stats Elevation 44 ft / 13 m (AMSL)
Location 59.460062° -135.315661°
Runways 1
Magnetic Variation 19.214° E

METAR

PAGY 210900Z AUTO 00000KT 8SM -RA SCT015 OVC047 09/08 A2977 RMK AO2 P0001 T00890078 TSNO $

Decode

TAF

TAF AMD PAGY 210809Z 2108/2206 21005KT P6SM -RA SCT015 BKN025 OVC045 WS020/15035KT TEMPO 2108/2112 4SM -RA BR BKN015 FM212100 20013KT P6SM -RA OVC040 AMD LTD TO CLD VIS AND WIND

Decode

Departure Runways

ID Width Length Bearing (true) Bearing (mag) Surface Threshold Offset Overrun Length
02 75 ft / 23 m 3,542 ft / 1,080 m 43.94° 24.73° Asphalt 0 ft / 0 m 299 ft / 91 m
20 75 ft / 23 m 3,542 ft / 1,080 m 223.95° 204.74° Asphalt 0 ft / 0 m 299 ft / 91 m

PASI

Details ICAO PASI (SIT)
Name SITKA ROCKY GUTIERREZ
Region USA (Alaska)
Timezone America/Juneau (UTC-8.0)
Stats Elevation 21 ft / 6 m (AMSL)
Location 57.047128° -135.361597°
Runways 1
Magnetic Variation 18.634° E

METAR

PASI 210853Z 14006KT 6SM -RA BR BKN040 OVC047 10/09 A2974

Decode

TAF

TAF PASI 210529Z 2106/2206 21010KT 6SM -RA BR SCT014 BKN024 OVC050 FM211000 14011G21KT 4SM -RA BR BKN015 OVC025 WS020/15040KT FM211800 12018G28KT 4SM -RA BR OVC015 WS020/15045KT FM220000 14011KT 5SM -RA BR SCT015 OVC025

Decode

Destination Runways

ID Width Length Bearing (true) Bearing (mag) Surface Threshold Offset Overrun Length
11 150 ft / 46 m 6,485 ft / 1,977 m 135.57° 116.94° Asphalt 0 ft / 0 m 0 ft / 0 m
29 150 ft / 46 m 6,485 ft / 1,977 m 315.59° 296.96° Asphalt 0 ft / 0 m 0 ft / 0 m

Approach Navaids

Runway Type Ident Frequency Range Bearing (true) Bearing (mag) Slope Elevation
11 Localiser ISIT 108.90 MHz 18 nm / 33 km 143.51° 124.87° - 15 ft / 5 m (AMSL)
11 DME ISIT 108.90 MHz 18 nm / 33 km - - - 34 ft / 10 m (AMSL)